Santana do Parnaiba, Brazil
Current Conditions -  °F | °C
As of 5:00 PM on Friday 31 Oct 2014 (Local Time) from SBSR Reporting Station
Few Clouds Few Clouds  
Wind Chill: 84°   Ceiling: Unl
Heat Index: 84°   Visibility: 6mi
Dew Point: 61°   Wind: 3mph
Humidity: 45%   Direction: 240°WSW
Pressure: 29.91"   Gusts: NA
Location:  19.67°S, 51.18°W
Report Text: SBSR 312000Z 24003KT 9999 FEW040 29/16 Q1013
Loading
Personal Weather Stations






























Interactive Weather Map
Tropical Storm Tracking
New forecast layout! Learn more

10-Day Weather Forecast

Advertisements
Track Severe Weather on mobile